Time;durP1;ratioP1;P1;durP2;ratioP2;P2;SDS_P1;SDS_P2;PMS_P1;PMS_P2;Temp;Humidity;BMP_temperature;BMP_pressure;BME280_temperature;BME280_humidity;BME280_pressure;Samples;Min_cycle;Max_cycle;Signal;HPM_P1;HPM_P2
2022/03/26 00:00:09;;;;;;;51.97;20.33;;;8.00;74.80;;;;;;4909919;29;20224;-82
2022/03/26 00:02:35;;;;;;;44.78;19.67;;;8.00;74.70;;;;;;4918911;29;20096;-82
2022/03/26 00:05:01;;;;;;;42.90;19.70;;;7.90;75.20;;;;;;4916067;29;20029;-84
2022/03/26 00:07:27;;;;;;;46.72;19.95;;;7.80;75.50;;;;;;4903339;29;20100;-83
2022/03/26 00:09:53;;;;;;;46.03;20.20;;;7.80;75.70;;;;;;4903215;29;20064;-85
2022/03/26 00:12:18;;;;;;;44.45;20.17;;;7.80;75.50;;;;;;4901508;29;20028;-84
2022/03/26 00:14:44;;;;;;;48.47;19.67;;;7.80;75.30;;;;;;4902770;29;20119;-82
2022/03/26 00:17:10;;;;;;;45.03;18.92;;;7.80;75.10;;;;;;4910065;29;20032;-83
2022/03/26 00:19:36;;;;;;;47.30;21.00;;;7.80;74.80;;;;;;4911813;29;20049;-81
2022/03/26 00:22:02;;;;;;;49.45;21.52;;;7.80;74.70;;;;;;4913021;29;20025;-83
2022/03/26 00:24:28;;;;;;;42.35;20.30;;;7.80;74.80;;;;;;4908496;29;20025;-83
2022/03/26 00:26:54;;;;;;;41.85;19.42;;;7.80;75.00;;;;;;4904077;29;20131;-82
2022/03/26 00:29:20;;;;;;;43.78;20.70;;;7.70;75.00;;;;;;4903702;29;20036;-85
2022/03/26 00:31:46;;;;;;;44.00;20.45;;;7.70;75.20;;;;;;4902597;29;20636;-83
2022/03/26 00:34:12;;;;;;;47.42;20.00;;;7.60;75.00;;;;;;4902533;29;20021;-84
2022/03/26 00:36:39;;;;;;;42.78;18.75;;;7.60;75.20;;;;;;4905146;29;20037;-82
2022/03/26 00:39:05;;;;;;;54.28;20.00;;;7.50;75.60;;;;;;4910498;29;20084;-83
2022/03/26 00:41:31;;;;;;;62.42;20.60;;;7.50;76.00;;;;;;4910459;29;20048;-82
2022/03/26 00:43:57;;;;;;;45.65;19.33;;;7.50;76.30;;;;;;4905424;29;20039;-82
2022/03/26 00:46:23;;;;;;;47.92;19.05;;;7.50;76.60;;;;;;4908818;29;20033;-85
2022/03/26 00:48:49;;;;;;;45.70;20.20;;;7.50;76.70;;;;;;4913866;29;20060;-83
2022/03/26 00:51:15;;;;;;;54.03;21.20;;;7.50;76.70;;;;;;4910935;29;20044;-84
2022/03/26 00:53:42;;;;;;;44.33;20.05;;;7.40;77.00;;;;;;4916781;29;20036;-82
2022/03/26 00:56:08;;;;;;;43.97;20.10;;;7.40;77.40;;;;;;4931580;23;20052;-85
2022/03/26 00:58:34;;;;;;;46.95;20.25;;;7.30;77.80;;;;;;4913470;29;20227;-87
2022/03/26 01:01:00;;;;;;;46.05;20.80;;;7.30;78.30;;;;;;4916313;29;20040;-86
2022/03/26 01:03:26;;;;;;;45.75;20.42;;;7.30;78.60;;;;;;4913837;29;20025;-85
2022/03/26 01:05:52;;;;;;;51.97;21.35;;;7.30;79.00;;;;;;4914091;29;20028;-87
2022/03/26 01:08:18;;;;;;;45.17;21.77;;;7.30;79.80;;;;;;4911889;29;20028;-86
2022/03/26 01:10:44;;;;;;;47.13;21.60;;;7.20;80.20;;;;;;4909658;29;20548;-86
2022/03/26 01:13:11;;;;;;;50.97;21.45;;;7.20;80.40;;;;;;4908757;29;20028;-84
2022/03/26 01:15:37;;;;;;;48.40;21.23;;;7.20;80.90;;;;;;4909569;29;20131;-85
2022/03/26 01:18:03;;;;;;;49.00;20.67;;;7.10;81.40;;;;;;4911456;29;20107;-85
2022/03/26 01:20:29;;;;;;;51.28;21.42;;;7.10;82.10;;;;;;4914647;29;20051;-84
2022/03/26 01:22:56;;;;;;;48.08;20.00;;;7.10;82.70;;;;;;4914576;29;20044;-86
2022/03/26 01:25:22;;;;;;;50.03;19.92;;;7.00;83.10;;;;;;4914826;29;20044;-86
2022/03/26 01:27:47;;;;;;;45.08;20.45;;;7.00;83.70;;;;;;4915358;29;20103;-84
2022/03/26 01:30:13;;;;;;;42.42;19.48;;;7.00;84.60;;;;;;4913947;29;20033;-86
2022/03/26 01:32:39;;;;;;;50.10;21.42;;;7.00;85.60;;;;;;4912186;29;20033;-86
2022/03/26 01:35:06;;;;;;;46.90;19.50;;;7.00;88.20;;;;;;4917357;29;20057;-87
2022/03/26 01:37:32;;;;;;;44.00;20.75;;;6.90;89.60;;;;;;4912693;29;20446;-84
2022/03/26 01:39:57;;;;;;;44.97;19.35;;;6.90;90.30;;;;;;4914977;29;20060;-86
2022/03/26 01:42:23;;;;;;;50.28;19.70;;;6.90;91.20;;;;;;4913564;29;20037;-87
2022/03/26 01:44:49;;;;;;;45.42;20.95;;;6.90;91.70;;;;;;4914786;29;20052;-87
2022/03/26 01:47:15;;;;;;;45.35;19.65;;;6.90;92.10;;;;;;4914499;29;20049;-87
2022/03/26 01:49:41;;;;;;;44.35;19.55;;;6.80;91.80;;;;;;4915886;29;20051;-86
2022/03/26 01:52:09;;;;;;;45.85;20.10;;;6.80;91.70;;;;;;4917216;29;20025;-85
2022/03/26 01:54:36;;;;;;;50.53;21.30;;;6.80;91.40;;;;;;4916353;29;20449;-88
2022/03/26 01:57:03;;;;;;;47.95;19.80;;;6.80;91.40;;;;;;4912890;29;20029;-85
2022/03/26 01:59:29;;;;;;;44.10;20.42;;;6.80;91.40;;;;;;4913970;29;20021;-85
2022/03/26 02:01:55;;;;;;;50.92;20.27;;;6.80;91.20;;;;;;4919244;29;20055;-85
2022/03/26 02:04:23;;;;;;;50.97;20.48;;;6.70;91.40;;;;;;4919421;29;20035;-82
2022/03/26 02:06:49;;;;;;;45.65;21.15;;;6.70;91.30;;;;;;4907112;29;20028;-83
2022/03/26 02:09:15;;;;;;;47.00;19.50;;;6.70;91.50;;;;;;4921941;29;20028;-84
2022/03/26 02:11:44;;;;;;;54.80;20.65;;;6.60;91.30;;;;;;4921806;29;20024;-84
2022/03/26 02:14:11;;;;;;;43.28;20.73;;;6.60;91.10;;;;;;4921473;29;20020;-84
2022/03/26 02:16:40;;;;;;;51.00;20.48;;;6.70;90.70;;;;;;4922535;29;20037;-83
2022/03/26 02:19:08;;;;;;;51.80;22.52;;;6.60;90.60;;;;;;4902758;29;20507;-85
2022/03/26 02:21:35;;;;;;;50.25;22.48;;;6.60;90.70;;;;;;4915408;29;20103;-86
2022/03/26 02:24:03;;;;;;;49.70;21.42;;;6.60;90.90;;;;;;4915525;29;20040;-85
2022/03/26 02:26:30;;;;;;;54.15;22.75;;;6.60;91.20;;;;;;4912973;29;20032;-84
2022/03/26 02:28:57;;;;;;;50.03;21.95;;;6.60;91.70;;;;;;4913997;29;20032;-87
2022/03/26 02:31:26;;;;;;;54.58;22.08;;;6.50;92.40;;;;;;4913648;29;20029;-86
2022/03/26 02:33:53;;;;;;;48.90;22.00;;;6.40;93.00;;;;;;4914716;29;20323;-86
2022/03/26 02:36:19;;;;;;;47.95;21.83;;;6.40;93.80;;;;;;4916135;29;20025;-86
2022/03/26 02:38:45;;;;;;;49.42;23.02;;;6.40;94.30;;;;;;4915589;29;20504;-86
2022/03/26 02:41:10;;;;;;;57.10;22.25;;;6.30;94.80;;;;;;4917671;29;20044;-86
2022/03/26 02:43:37;;;;;;;51.20;21.50;;;6.30;95.20;;;;;;4915739;29;20486;-86
2022/03/26 02:46:03;;;;;;;53.35;22.55;;;6.20;95.50;;;;;;4916152;29;20028;-85
2022/03/26 02:48:29;;;;;;;53.42;23.38;;;6.20;95.80;;;;;;4916264;29;20037;-86
2022/03/26 02:50:55;;;;;;;57.05;23.45;;;6.20;96.20;;;;;;4917685;29;20029;-86
2022/03/26 02:53:21;;;;;;;52.05;23.90;;;6.20;96.50;;;;;;4919490;29;20061;-83
2022/03/26 02:55:47;;;;;;;52.50;22.65;;;6.10;97.00;;;;;;4915993;29;20056;-87
2022/03/26 02:58:13;;;;;;;61.78;22.30;;;6.10;97.40;;;;;;4916609;29;20047;-84
2022/03/26 03:00:38;;;;;;;54.60;21.85;;;6.10;97.60;;;;;;4918653;29;20033;-84
2022/03/26 03:03:06;;;;;;;54.03;22.63;;;6.00;97.70;;;;;;4919674;29;20064;-86
2022/03/26 03:05:33;;;;;;;49.67;20.95;;;6.00;97.80;;;;;;4914407;29;20032;-86
2022/03/26 03:08:00;;;;;;;49.10;21.23;;;6.10;98.10;;;;;;4912620;29;20040;-86
2022/03/26 03:10:27;;;;;;;55.30;23.02;;;6.00;98.20;;;;;;4919305;29;20048;-84
2022/03/26 03:12:53;;;;;;;56.25;22.02;;;6.00;98.40;;;;;;4920655;29;20068;-83
2022/03/26 03:15:20;;;;;;;52.72;22.58;;;6.00;98.70;;;;;;4914923;29;20025;-87
2022/03/26 03:17:47;;;;;;;59.58;22.58;;;6.00;99.00;;;;;;4914651;29;20032;-84
2022/03/26 03:20:14;;;;;;;51.08;22.58;;;6.00;99.30;;;;;;4913465;29;20040;-85
2022/03/26 03:22:41;;;;;;;49.90;20.35;;;6.00;99.50;;;;;;4912895;29;20047;-87
2022/03/26 03:25:08;;;;;;;60.40;23.50;;;5.90;99.90;;;;;;4896909;29;20036;-88
2022/03/26 03:27:35;;;;;;;57.17;23.63;;;6.00;99.90;;;;;;4912332;29;20509;-85
2022/03/26 03:30:01;;;;;;;53.53;21.90;;;5.90;99.90;;;;;;4913650;29;20034;-85
2022/03/26 03:32:27;;;;;;;50.08;21.25;;;5.90;99.90;;;;;;4913087;29;20025;-87
2022/03/26 03:34:53;;;;;;;50.97;22.42;;;5.90;99.60;;;;;;4913176;29;20036;-86
2022/03/26 03:37:19;;;;;;;57.65;23.00;;;5.80;99.40;;;;;;4913815;29;20508;-86
2022/03/26 03:39:45;;;;;;;48.45;21.80;;;5.80;99.00;;;;;;4910978;29;20036;-85
2022/03/26 03:42:11;;;;;;;52.10;22.33;;;5.80;99.10;;;;;;4911536;29;20037;-86
2022/03/26 03:44:37;;;;;;;51.00;21.67;;;5.70;99.30;;;;;;4914265;29;20093;-85
2022/03/26 03:47:03;;;;;;;55.85;22.88;;;5.70;99.30;;;;;;4917333;29;20021;-87
2022/03/26 03:49:31;;;;;;;52.80;22.15;;;5.70;98.70;;;;;;4910862;29;20040;-85
2022/03/26 03:51:58;;;;;;;49.92;22.05;;;5.60;98.30;;;;;;4912518;29;20028;-86
2022/03/26 03:54:25;;;;;;;53.75;22.52;;;5.60;98.20;;;;;;4910486;29;20031;-86
2022/03/26 03:56:51;;;;;;;56.28;21.92;;;5.60;98.20;;;;;;4912257;29;20421;-84
2022/03/26 03:59:17;;;;;;;51.63;22.65;;;5.50;98.40;;;;;;4912271;29;20024;-86
2022/03/26 04:01:43;;;;;;;47.00;21.75;;;5.60;98.50;;;;;;4912247;29;20039;-84
2022/03/26 04:04:09;;;;;;;54.17;21.80;;;5.50;98.80;;;;;;4912494;29;20056;-85
2022/03/26 04:06:35;;;;;;;55.90;23.73;;;5.50;99.20;;;;;;4911036;29;20076;-84
2022/03/26 04:09:01;;;;;;;51.92;21.20;;;5.50;99.50;;;;;;4894521;29;20032;-86
2022/03/26 04:11:27;;;;;;;56.67;23.33;;;5.50;99.70;;;;;;4911521;29;20037;-85
2022/03/26 04:13:53;;;;;;;58.38;22.77;;;5.40;99.80;;;;;;4909623;29;20032;-85
2022/03/26 04:16:20;;;;;;;55.33;22.63;;;5.40;99.90;;;;;;4911508;29;20028;-84
2022/03/26 04:18:46;;;;;;;50.35;21.90;;;5.40;99.90;;;;;;4913495;29;20017;-84
2022/03/26 04:21:13;;;;;;;56.47;21.35;;;5.40;99.90;;;;;;4912884;29;20165;-83
2022/03/26 04:23:38;;;;;;;50.85;22.08;;;5.40;99.90;;;;;;4913233;29;20084;-85
2022/03/26 04:26:04;;;;;;;56.33;21.70;;;5.40;99.90;;;;;;4914983;29;20029;-85
2022/03/26 04:28:30;;;;;;;55.88;23.33;;;5.30;99.90;;;;;;4898187;29;20041;-85
2022/03/26 04:30:56;;;;;;;58.17;22.23;;;5.30;99.90;;;;;;4913799;29;20037;-86
2022/03/26 04:33:22;;;;;;;52.28;22.50;;;5.40;99.90;;;;;;4913085;29;20025;-84
2022/03/26 04:35:48;;;;;;;53.45;21.02;;;5.40;99.90;;;;;;4914222;29;20042;-86
2022/03/26 04:38:14;;;;;;;49.55;21.33;;;5.40;99.90;;;;;;4913520;29;20064;-85
2022/03/26 04:40:39;;;;;;;52.20;22.17;;;5.30;99.90;;;;;;4914940;29;20036;-86
2022/03/26 04:43:05;;;;;;;62.00;22.45;;;5.40;99.90;;;;;;4914239;29;20045;-87
2022/03/26 04:45:32;;;;;;;50.85;22.17;;;5.30;99.90;;;;;;4897383;29;20041;-86
2022/03/26 04:47:58;;;;;;;64.40;24.42;;;5.40;99.90;;;;;;4915104;29;20020;-86
2022/03/26 04:50:25;;;;;;;52.00;22.75;;;5.40;99.90;;;;;;4916056;29;20032;-86
2022/03/26 04:52:50;;;;;;;54.38;23.20;;;5.40;99.90;;;;;;4918954;29;20049;-87
2022/03/26 04:55:18;;;;;;;54.38;22.50;;;5.40;99.90;;;;;;4918375;29;20041;-85
2022/03/26 04:57:51;;;;;;;46.05;21.50;;;5.40;99.90;;;;;;4918811;29;20027;-87
2022/03/26 05:00:19;;;;;;;50.40;22.80;;;5.40;99.90;;;;;;4918971;29;20040;-86
2022/03/26 05:02:45;;;;;;;52.28;21.83;;;5.40;99.90;;;;;;4917694;29;20024;-87
2022/03/26 05:05:12;;;;;;;61.85;23.10;;;5.40;99.90;;;;;;4917643;29;20039;-87
2022/03/26 05:07:45;;;;;;;53.67;21.70;;;5.40;99.90;;;;;;4917620;29;20092;-86
2022/03/26 05:10:22;;;;;;;56.75;22.27;;;5.50;99.90;;;;;;4916558;29;20092;-83
2022/03/26 05:12:50;;;;;;;54.28;22.02;;;5.50;99.90;;;;;;4923202;29;20037;-84
2022/03/26 05:15:18;;;;;;;52.05;21.20;;;5.50;99.90;;;;;;4925123;29;20036;-83
2022/03/26 05:17:44;;;;;;;52.78;21.90;;;5.50;99.90;;;;;;4922119;29;20025;-86
2022/03/26 05:20:14;;;;;;;55.38;22.02;;;5.50;99.90;;;;;;4923966;29;20021;-85
2022/03/26 05:22:41;;;;;;;53.17;23.30;;;5.50;99.90;;;;;;4924708;29;20051;-84
2022/03/26 05:25:08;;;;;;;56.40;21.85;;;5.50;99.90;;;;;;4919273;29;20060;-85
2022/03/26 05:27:35;;;;;;;55.75;23.55;;;5.50;99.90;;;;;;4923461;29;20020;-86
2022/03/26 05:30:01;;;;;;;57.45;22.65;;;5.50;99.90;;;;;;4922072;29;20017;-85
2022/03/26 05:32:27;;;;;;;55.85;23.10;;;5.50;99.90;;;;;;4917688;29;20028;-86
2022/03/26 05:34:52;;;;;;;53.90;22.92;;;5.50;99.90;;;;;;4916972;29;20035;-87
2022/03/26 05:37:19;;;;;;;55.30;22.55;;;5.50;99.90;;;;;;4917214;29;20039;-86
2022/03/26 05:39:48;;;;;;;56.58;23.73;;;5.50;99.90;;;;;;4917361;29;20051;-86
2022/03/26 05:42:15;;;;;;;53.88;22.15;;;5.60;99.90;;;;;;4916181;29;20402;-86
2022/03/26 05:44:41;;;;;;;51.85;21.83;;;5.70;99.90;;;;;;4915459;29;20025;-85
2022/03/26 05:47:07;;;;;;;55.83;24.23;;;5.80;99.90;;;;;;4916620;29;20036;-86
2022/03/26 05:49:33;;;;;;;63.67;23.70;;;5.80;99.90;;;;;;4903861;29;20021;-84
2022/03/26 05:51:59;;;;;;;55.53;24.08;;;5.90;99.90;;;;;;4919351;29;20025;-86
2022/03/26 05:54:25;;;;;;;52.15;22.88;;;6.00;99.90;;;;;;4918895;29;20040;-84
2022/03/26 05:56:53;;;;;;;52.63;23.60;;;6.10;99.90;;;;;;4920976;29;20037;-85
2022/03/26 05:59:24;;;;;;;58.22;23.67;;;6.10;99.80;;;;;;4923164;29;20016;-84
2022/03/26 06:01:50;;;;;;;60.90;23.08;;;6.20;99.90;;;;;;4922128;29;20025;-85
2022/03/26 06:04:17;;;;;;;58.05;24.30;;;6.30;99.80;;;;;;4921473;29;20017;-86
2022/03/26 06:06:43;;;;;;;55.60;22.95;;;6.40;99.30;;;;;;4922342;29;20041;-86
2022/03/26 06:09:10;;;;;;;57.58;24.30;;;6.60;98.80;;;;;;4907536;29;20088;-86
2022/03/26 06:11:36;;;;;;;57.20;23.35;;;6.70;98.10;;;;;;4922764;29;20119;-85
2022/03/26 06:14:02;;;;;;;48.80;22.80;;;6.80;97.90;;;;;;4921793;29;20033;-86
2022/03/26 06:16:28;;;;;;;59.67;23.45;;;6.90;97.80;;;;;;4921098;29;20027;-86
2022/03/26 06:18:54;;;;;;;58.35;23.20;;;7.00;97.80;;;;;;4920538;29;20112;-86
2022/03/26 06:21:20;;;;;;;54.88;24.35;;;7.20;97.70;;;;;;4919989;29;20076;-86
2022/03/26 06:23:46;;;;;;;50.13;23.83;;;7.30;97.40;;;;;;4920839;29;20537;-87
2022/03/26 06:26:12;;;;;;;50.63;23.27;;;7.50;96.90;;;;;;4921443;29;20040;-88
2022/03/26 06:28:38;;;;;;;52.10;24.27;;;7.60;96.40;;;;;;4921376;29;20031;-84
2022/03/26 06:31:04;;;;;;;48.13;22.33;;;7.80;96.00;;;;;;4920967;29;20021;-87
2022/03/26 06:33:30;;;;;;;55.55;25.30;;;7.90;95.50;;;;;;4921626;29;20107;-85
2022/03/26 06:35:56;;;;;;;58.40;23.60;;;8.10;95.00;;;;;;4917438;29;20048;-87
2022/03/26 06:38:22;;;;;;;55.47;24.73;;;8.30;94.50;;;;;;4918420;29;20028;-85
2022/03/26 06:40:48;;;;;;;52.85;24.50;;;8.50;94.10;;;;;;4920974;29;20045;-87
2022/03/26 06:43:14;;;;;;;61.72;23.98;;;8.70;93.90;;;;;;4921200;29;20048;-87
2022/03/26 06:45:40;;;;;;;65.78;24.42;;;8.80;93.50;;;;;;4905768;29;20053;-85
2022/03/26 06:48:07;;;;;;;45.13;23.05;;;8.90;93.00;;;;;;4922915;29;20119;-86
2022/03/26 06:50:33;;;;;;;68.55;25.95;;;9.00;92.60;;;;;;4922800;29;20048;-86
2022/03/26 06:52:59;;;;;;;54.03;24.35;;;9.10;91.60;;;;;;4922709;29;20024;-86
2022/03/26 06:57:59;;;;;;;50.30;24.77;;;9.20;91.10;;;;;;4908738;29;20055;-83
2022/03/26 07:00:24;;;;;;;51.35;23.13;;;9.30;90.80;;;;;;4909265;29;20136;-84
2022/03/26 07:02:50;;;;;;;59.10;24.30;;;9.30;90.40;;;;;;4913502;29;20028;-84
2022/03/26 07:05:16;;;;;;;57.03;24.13;;;9.60;89.60;;;;;;4910538;29;20032;-85
2022/03/26 07:07:42;;;;;;;52.30;24.52;;;9.80;87.40;;;;;;4913826;29;20051;-83
2022/03/26 07:10:09;;;;;;;51.40;24.15;;;10.00;85.00;;;;;;4918205;29;20016;-83
2022/03/26 07:12:35;;;;;;;54.75;23.88;;;10.20;83.80;;;;;;4917727;29;20080;-84
2022/03/26 07:15:07;;;;;;;55.00;24.38;;;10.40;81.40;;;;;;4912922;29;20013;-83
2022/03/26 07:17:33;;;;;;;55.00;25.45;;;10.60;81.10;;;;;;4912442;29;20025;-83
2022/03/26 07:19:59;;;;;;;60.67;26.02;;;10.80;80.20;;;;;;4910092;29;20025;-85
2022/03/26 07:22:25;;;;;;;58.20;25.48;;;11.00;79.50;;;;;;4910311;29;20032;-86
2022/03/26 07:24:51;;;;;;;59.30;25.95;;;11.10;78.70;;;;;;4909356;29;20029;-85
2022/03/26 07:27:16;;;;;;;54.40;25.60;;;11.10;78.50;;;;;;4908115;29;20036;-84
2022/03/26 07:29:42;;;;;;;58.78;25.80;;;11.20;78.60;;;;;;4908396;29;20033;-84
2022/03/26 07:32:09;;;;;;;56.97;25.63;;;11.20;78.80;;;;;;4916221;29;20052;-85
2022/03/26 07:34:35;;;;;;;54.17;26.23;;;11.30;78.70;;;;;;4906557;29;20028;-85
2022/03/26 07:37:01;;;;;;;54.28;24.27;;;11.30;77.40;;;;;;4906089;29;20140;-84
2022/03/26 07:39:27;;;;;;;52.47;24.75;;;11.40;76.90;;;;;;4906828;29;20052;-84
2022/03/26 07:41:54;;;;;;;58.42;26.35;;;11.40;76.40;;;;;;4903380;29;20032;-85
2022/03/26 07:44:20;;;;;;;61.00;26.33;;;11.50;75.90;;;;;;4914479;29;20024;-84
2022/03/26 07:46:46;;;;;;;59.13;27.35;;;11.60;75.00;;;;;;4920596;29;20052;-83
2022/03/26 07:49:11;;;;;;;60.72;26.52;;;11.60;74.70;;;;;;4929276;29;20027;-84
2022/03/26 07:51:37;;;;;;;57.92;26.20;;;11.70;74.60;;;;;;4925705;29;20047;-83
2022/03/26 07:54:03;;;;;;;57.80;25.77;;;11.80;74.30;;;;;;4916309;29;20025;-84
2022/03/26 07:56:29;;;;;;;58.47;26.02;;;11.90;74.50;;;;;;4913064;29;20115;-85
2022/03/26 07:58:57;;;;;;;55.35;26.05;;;12.00;74.60;;;;;;4914877;29;20059;-86
2022/03/26 08:01:23;;;;;;;68.20;27.27;;;12.00;74.60;;;;;;4913984;29;20032;-85
2022/03/26 08:03:53;;;;;;;56.95;24.92;;;12.20;74.60;;;;;;4915624;29;20056;-85
2022/03/26 08:06:21;;;;;;;63.60;25.98;;;12.30;74.00;;;;;;4917434;29;20032;-84
2022/03/26 08:08:47;;;;;;;54.78;26.42;;;12.50;73.40;;;;;;4919136;29;20088;-86
2022/03/26 08:11:13;;;;;;;62.65;27.35;;;12.70;72.90;;;;;;4919608;29;20037;-87
2022/03/26 08:13:39;;;;;;;60.78;26.85;;;12.80;72.50;;;;;;4916116;29;20029;-86
2022/03/26 08:16:07;;;;;;;58.83;25.77;;;12.80;72.10;;;;;;4920519;29;20012;-85
2022/03/26 08:18:33;;;;;;;58.53;27.08;;;12.90;71.60;;;;;;4927774;29;20033;-82
2022/03/26 08:20:59;;;;;;;56.47;26.17;;;13.00;71.40;;;;;;4925149;29;20041;-82
2022/03/26 08:23:24;;;;;;;54.60;27.05;;;13.00;71.50;;;;;;4919167;29;20023;-82
2022/03/26 08:28:35;;;;;;;57.75;26.25;;;13.00;71.30;;;;;;4910945;29;20036;-82
2022/03/26 08:31:00;;;;;;;55.78;26.02;;;13.20;70.70;;;;;;4913842;29;20024;-81
2022/03/26 08:33:26;;;;;;;52.33;26.42;;;13.20;69.30;;;;;;4912705;29;20020;-82
2022/03/26 08:35:52;;;;;;;60.72;26.85;;;13.10;68.20;;;;;;4910971;29;20037;-82
2022/03/26 08:38:18;;;;;;;64.97;26.80;;;13.00;68.10;;;;;;4911186;29;20080;-80
2022/03/26 08:40:43;;;;;;;58.65;25.98;;;13.10;67.60;;;;;;4912076;29;20028;-85
2022/03/26 08:43:10;;;;;;;57.80;26.08;;;13.10;66.80;;;;;;4913658;29;20025;-84
2022/03/26 08:45:35;;;;;;;56.75;25.60;;;13.10;66.40;;;;;;4913944;29;20024;-80
2022/03/26 08:48:01;;;;;;;58.90;25.35;;;13.20;65.90;;;;;;4924910;29;20077;-82
2022/03/26 08:50:27;;;;;;;57.38;25.13;;;13.20;65.90;;;;;;4897290;29;20029;-83
2022/03/26 08:52:53;;;;;;;52.42;24.92;;;13.20;65.70;;;;;;4894434;29;20115;-83
2022/03/26 08:55:19;;;;;;;53.72;25.63;;;13.30;65.60;;;;;;4902754;29;20017;-82
2022/03/26 08:57:45;;;;;;;57.35;25.45;;;13.30;65.40;;;;;;4898953;29;20025;-83
2022/03/26 09:00:13;;;;;;;51.90;25.48;;;13.40;65.80;;;;;;4893363;29;20053;-83
2022/03/26 09:02:40;;;;;;;52.45;24.65;;;13.60;65.50;;;;;;4896237;29;20060;-86
2022/03/26 09:05:06;;;;;;;60.25;26.38;;;13.90;65.60;;;;;;4895621;29;20062;-83
2022/03/26 09:07:33;;;;;;;61.28;25.67;;;14.10;65.00;;;;;;4892641;29;20131;-84
2022/03/26 09:09:59;;;;;;;54.67;25.73;;;14.50;64.60;;;;;;4893897;29;20119;-83
2022/03/26 09:12:25;;;;;;;51.45;25.02;;;15.00;63.70;;;;;;4896134;29;20052;-85
2022/03/26 09:14:50;;;;;;;58.50;26.58;;;15.60;62.70;;;;;;4895030;29;20012;-86
2022/03/26 09:17:17;;;;;;;49.92;24.10;;;16.30;61.80;;;;;;4896331;29;20076;-84
2022/03/26 09:19:42;;;;;;;52.55;26.40;;;17.20;59.60;;;;;;4899821;29;20052;-86
2022/03/26 09:22:09;;;;;;;49.35;26.00;;;18.20;57.20;;;;;;4896168;29;20458;-85
2022/03/26 09:24:34;;;;;;;51.00;25.23;;;18.80;56.00;;;;;;4909761;29;20040;-86
2022/03/26 09:27:00;;;;;;;51.70;25.40;;;20.00;54.50;;;;;;4907145;29;20033;-83
2022/03/26 09:29:26;;;;;;;55.17;25.48;;;21.10;52.50;;;;;;4904802;29;20029;-87
2022/03/26 09:31:52;;;;;;;47.15;24.90;;;22.50;49.70;;;;;;4896336;29;20036;-85
2022/03/26 09:34:18;;;;;;;48.78;25.27;;;23.00;47.70;;;;;;4892671;29;20029;-85
2022/03/26 09:36:44;;;;;;;45.17;23.40;;;23.90;47.20;;;;;;4897541;29;20065;-86
2022/03/26 09:39:09;;;;;;;45.20;25.50;;;25.10;45.40;;;;;;4893952;29;20021;-83
2022/03/26 09:41:36;;;;;;;47.08;24.50;;;26.00;43.70;;;;;;4898365;29;20037;-84
2022/03/26 09:44:02;;;;;;;44.55;24.10;;;26.70;42.60;;;;;;4898461;29;20025;-81
2022/03/26 09:46:28;;;;;;;40.28;23.27;;;27.20;41.90;;;;;;4895859;29;20025;-85
2022/03/26 09:48:54;;;;;;;45.13;23.80;;;27.50;40.70;;;;;;4896863;29;20080;-82
2022/03/26 09:51:23;;;;;;;42.75;23.75;;;28.30;39.90;;;;;;4897200;29;20033;-83
2022/03/26 09:53:52;;;;;;;40.72;22.20;;;29.30;38.80;;;;;;4881551;29;20053;-83
2022/03/26 09:56:19;;;;;;;40.67;22.90;;;29.10;37.80;;;;;;4894538;29;20045;-82
2022/03/26 09:58:45;;;;;;;38.20;23.00;;;29.20;37.50;;;;;;4897207;29;20032;-83
2022/03/26 10:01:11;;;;;;;38.75;22.92;;;29.90;37.00;;;;;;4896121;29;20060;-84
2022/03/26 10:03:41;;;;;;;41.35;22.48;;;30.40;36.90;;;;;;4895985;29;20033;-86
2022/03/26 10:06:07;;;;;;;38.75;22.40;;;30.60;36.80;;;;;;4907684;29;20106;-83
2022/03/26 10:08:38;;;;;;;40.70;21.65;;;31.00;36.30;;;;;;4913858;29;20088;-84
2022/03/26 10:11:06;;;;;;;37.72;21.67;;;31.40;36.60;;;;;;4898896;29;20032;-85
2022/03/26 10:13:52;;;;;;;49.63;25.42;;;32.00;35.80;;;;;;4902623;29;20096;-83
2022/03/26 10:16:19;;;;;;;37.90;21.48;;;32.50;35.20;;;;;;4897842;29;20452;-83
2022/03/26 10:18:46;;;;;;;35.75;22.25;;;33.10;34.60;;;;;;4898654;29;20027;-85
2022/03/26 10:21:17;;;;;;;36.60;20.67;;;33.20;34.30;;;;;;4880081;29;20177;-84
2022/03/26 10:23:51;;;;;;;40.45;22.48;;;33.30;34.10;;;;;;4897156;29;20393;-85
2022/03/26 10:26:21;;;;;;;37.53;22.67;;;32.80;34.10;;;;;;4898268;29;20096;-85
2022/03/26 10:28:58;;;;;;;36.55;21.92;;;32.80;34.10;;;;;;4899495;29;20036;-86
2022/03/26 10:34:16;;;;;;;33.35;21.45;;;33.60;34.10;;;;;;4899954;29;20040;-86
2022/03/26 10:36:43;;;;;;;32.53;21.40;;;32.90;34.30;;;;;;4899203;29;20033;-86
2022/03/26 10:39:19;;;;;;;32.72;20.77;;;33.40;34.10;;;;;;4925183;29;20024;-88
2022/03/26 10:41:47;;;;;;;39.60;22.40;;;33.90;33.90;;;;;;4930405;29;20056;-87
2022/03/26 10:44:15;;;;;;;34.75;20.45;;;34.20;33.60;;;;;;4929101;29;20039;-84
2022/03/26 10:47:00;;;;;;;33.65;20.75;;;34.20;33.80;;;;;;4933329;29;20032;-87
2022/03/26 10:49:27;;;;;;;31.38;20.98;;;33.90;33.60;;;;;;4932263;29;20471;-89
2022/03/26 10:51:55;;;;;;;35.05;20.70;;;33.60;33.80;;;;;;4934848;29;20092;-89
2022/03/26 10:54:29;;;;;;;33.17;21.15;;;34.10;33.60;;;;;;4939331;29;20051;-84
2022/03/26 10:57:00;;;;;;;35.38;22.33;;;33.50;33.70;;;;;;4938090;29;20098;-83
2022/03/26 10:59:29;;;;;;;33.88;20.98;;;33.70;33.90;;;;;;4940542;29;20028;-83
2022/03/26 11:01:55;;;;;;;34.70;21.23;;;34.10;33.40;;;;;;4934412;29;20039;-84
2022/03/26 11:04:21;;;;;;;31.67;20.10;;;33.70;33.50;;;;;;4933952;29;20035;-83
2022/03/26 11:06:48;;;;;;;30.73;19.42;;;33.50;33.80;;;;;;4939054;29;20016;-82
2022/03/26 11:09:18;;;;;;;33.58;20.52;;;32.80;34.10;;;;;;4936902;29;20051;-85
2022/03/26 11:11:47;;;;;;;42.38;21.45;;;33.90;33.60;;;;;;4926097;29;20024;-84
2022/03/26 11:14:23;;;;;;;33.03;21.02;;;34.20;33.30;;;;;;4927537;29;20027;-85
2022/03/26 11:17:14;;;;;;;31.02;20.83;;;34.80;32.90;;;;;;4924072;29;20382;-85
2022/03/26 11:20:14;;;;;;;32.00;21.67;;;34.40;32.80;;;;;;4924243;29;20095;-86
2022/03/26 11:22:52;;;;;;;32.47;21.05;;;34.20;33.10;;;;;;4925036;29;20047;-83
2022/03/26 11:25:36;;;;;;;31.33;20.73;;;34.20;33.10;;;;;;4925575;29;20048;-83
2022/03/26 11:28:23;;;;;;;35.90;22.85;;;33.80;33.30;;;;;;4924548;29;20039;-82
2022/03/26 11:31:17;;;;;;;35.13;22.00;;;33.80;33.30;;;;;;4925695;29;20473;-84
2022/03/26 11:33:46;;;;;;;36.30;22.48;;;33.70;33.10;;;;;;4926656;29;20059;-85
2022/03/26 11:36:17;;;;;;;36.35;21.98;;;33.60;33.20;;;;;;4930829;29;20043;-84
2022/03/26 11:38:56;;;;;;;38.45;21.55;;;34.00;32.80;;;;;;4912625;29;20046;-83
2022/03/26 11:41:32;;;;;;;36.85;21.08;;;34.10;32.80;;;;;;4928481;29;20035;-83
2022/03/26 11:43:58;;;;;;;38.20;21.17;;;33.40;32.90;;;;;;4934294;29;20040;-83
2022/03/26 11:52:14;;;;;;;34.22;19.83;;;34.00;32.40;;;;;;4930059;29;20039;-83
2022/03/26 11:54:40;;;;;;;34.33;20.52;;;33.40;32.60;;;;;;4930136;29;20044;-85
2022/03/26 11:57:08;;;;;;;32.42;19.75;;;33.40;32.80;;;;;;4927321;29;20488;-83
2022/03/26 11:59:39;;;;;;;30.95;19.27;;;33.20;32.80;;;;;;4926441;29;20188;-85
2022/03/26 12:02:19;;;;;;;33.92;19.63;;;33.30;32.60;;;;;;4927339;29;20051;-83
2022/03/26 12:04:55;;;;;;;36.47;20.70;;;33.70;32.60;;;;;;4929842;29;20024;-84
2022/03/26 12:07:24;;;;;;;35.42;20.58;;;33.70;32.30;;;;;;4934925;29;20032;-82
2022/03/26 12:10:11;;;;;;;33.15;20.42;;;33.30;32.20;;;;;;4931472;29;20036;-85
2022/03/26 12:12:59;;;;;;;33.17;19.83;;;33.10;32.10;;;;;;4935627;29;20039;-85
2022/03/26 12:15:28;;;;;;;29.55;19.23;;;33.20;31.90;;;;;;4931806;29;20028;-84
2022/03/26 12:18:11;;;;;;;34.83;20.33;;;33.20;32.20;;;;;;4926059;29;20024;-83
2022/03/26 12:20:41;;;;;;;28.77;18.67;;;33.70;32.00;;;;;;4925892;29;20047;-85
2022/03/26 12:23:29;;;;;;;34.58;19.70;;;34.00;31.40;;;;;;4933980;29;20044;-82
2022/03/26 12:26:06;;;;;;;28.80;19.13;;;33.50;31.30;;;;;;4930523;29;20059;-83
2022/03/26 12:28:34;;;;;;;36.15;19.35;;;33.10;31.40;;;;;;4924031;29;20076;-85
2022/03/26 12:31:06;;;;;;;38.97;20.10;;;33.30;31.30;;;;;;4922519;29;20373;-82
2022/03/26 12:33:49;;;;;;;30.42;19.45;;;33.30;31.40;;;;;;4928202;29;20028;-84
2022/03/26 12:36:18;;;;;;;36.50;18.90;;;33.50;31.30;;;;;;4928961;29;20444;-83
2022/03/26 12:38:54;;;;;;;34.50;20.13;;;33.30;31.40;;;;;;4908104;29;20024;-84
2022/03/26 12:41:21;;;;;;;29.75;19.10;;;33.70;32.00;;;;;;4924335;29;20028;-83
2022/03/26 12:44:00;;;;;;;32.63;20.40;;;34.30;31.40;;;;;;4933838;29;20032;-82
2022/03/26 12:46:34;;;;;;;31.88;19.42;;;33.80;31.60;;;;;;4928715;29;20040;-84
2022/03/26 12:49:15;;;;;;;31.50;20.48;;;33.70;31.50;;;;;;4923449;29;20091;-84